Terminal Aerodrome Forecast
Issued by NWS Sioux Falls, SD

Home | Current Version | Previous Version | Text Only | Print | Product List | Glossary On
Versions: 1 2 3 4 5 6 7 8 9 10 11 12 13 14 15 16 17
000
FTUS43 KFSD 212330
TAFSUX
TAF
KSUX 212330Z 2200/2224 09004KT P6SM SCT200
     FM220900 11004KT P6SM OVC080
     FM221200 09004KT P6SM OVC030
     FM221300 09005KT 5SM -SN OVC020
     FM221600 10008KT 1 1/2SM -SN OVC010
     FM221900 12007KT 2SM -FZDZ OVC008
     FM222100 12007KT 1SM -SN OVC008=

USA.gov is the U.S. government's official web portal to all federal, state and local government web resources and services.